Kezdőlap
METAR-TAF:

METAR-TAF

Repülőterek :

Thompson, Manitoba, Kanada

földrajzi szélesség: 55-48N, földrajzi hosszúság: 097-51W, magasság: 204 m

Jelenlegi meteorológiai megfigyelések

A jelentés 39 perccel ezelõtt készült, 11:00 UTC
Nyugati szél 2 kt
Hőmérséklet 9°C
Páratartalom 81%
Légköri nyomás 1014 hPa
Látótávolság: 24.1 km
Kevés felhő 14000 lábon

METAR: CYTH 221100Z 28002KT 15SM FEW140 09/06 A2994 RMK AC1 SLP145

Idő: 06:39 (11:39 UTC)

Előrejelzés

A jelentés 4 órával és 59 perccel ezelõtt készült, 06:40 UTC
Az előrejelzés 22-én 07 óra UTC és 22-én 19 óra UTC között érvényes
Nyugat-délnyugati szél 5 kt
Látótávolság: 10 km
Kevés felhő 10000 lábon

TAF: CYTH 220640Z 2207/2219 25005KT P6SM FEW100 RMK NXT FCST BY 221300Z

Meteorológiai megfigyelések és előrejelzések több, mint 4000 repülőtéren (METAR és TAF jelentéseket).

A térképen piros és sárga pontok jelzik az elérhető meteorológiai állomásokat.

Mozgassa az egeret a pont fölött, hogy megjelenjen az állomás neve.

Azután kattintson az időjárási megfigyelések és előrejelzések megtekintéséhez.

A térkép megváltoztatása: kattintson a fekete keresztel jelölt zöld gombra ráközelítéshez, a vonallal jelölt zöld gombra távolításhoz, vagy a zöld nyilakra a szomszédos térképek eléréséhez.


METAR-TAF: